Time;durP1;ratioP1;P1;durP2;ratioP2;P2;SDS_P1;SDS_P2;PMS_P1;PMS_P2;Temp;Humidity;BMP_temperature;BMP_pressure;BME280_temperature;BME280_humidity;BME280_pressure;Samples;Min_cycle;Max_cycle;Signal;HPM_P1;HPM_P2
2021/12/31 00:01:08;;;;;;;3.27;2.60;;;16.40;78.30;;;;;;5082529;28;20032;-88
2021/12/31 00:03:55;;;;;;;3.63;2.55;;;16.40;78.20;;;;;;5067901;28;20060;-90
2021/12/31 00:06:50;;;;;;;2.60;2.40;;;16.40;78.20;;;;;;5080463;28;20112;-89
2021/12/31 00:09:29;;;;;;;;;;;;;;;;;;;;;
2021/12/31 00:12:13;;;;;;;3.80;2.67;;;16.40;78.20;;;;;;5083818;28;20103;-89
2021/12/31 00:14:50;;;;;;;3.55;2.58;;;16.40;78.30;;;;;;5080434;28;20044;-89
2021/12/31 00:17:19;;;;;;;3.25;2.55;;;16.40;78.30;;;;;;5085188;28;20031;-88
2021/12/31 00:20:15;;;;;;;3.28;2.42;;;16.40;78.30;;;;;;5077791;28;20067;-90
2021/12/31 00:23:12;;;;;;;2.30;2.10;;;16.40;78.30;;;;;;5097395;28;20047;-88
2021/12/31 00:25:55;;;;;;;3.50;2.10;;;16.40;78.50;;;;;;5084543;28;20035;-90
2021/12/31 00:28:32;;;;;;;2.78;2.33;;;16.40;78.40;;;;;;5084022;28;20310;-90
2021/12/31 00:31:05;;;;;;;2.97;2.10;;;16.40;78.30;;;;;;5075494;28;20040;-88
2021/12/31 00:33:49;;;;;;;3.80;2.47;;;16.40;78.30;;;;;;5079979;28;20035;-88
2021/12/31 00:36:57;;;;;;;3.05;2.40;;;16.40;78.40;;;;;;5112537;28;20027;-88
2021/12/31 00:39:30;;;;;;;3.03;2.10;;;16.40;78.50;;;;;;5079899;28;20032;-88
2021/12/31 00:42:24;;;;;;;3.28;2.10;;;16.40;78.40;;;;;;5076975;28;20028;-88
2021/12/31 00:45:05;;;;;;;2.65;1.88;;;16.40;78.40;;;;;;5075443;28;20762;-89
2021/12/31 00:47:51;;;;;;;3.60;2.22;;;16.40;78.40;;;;;;5070532;28;20047;-88
2021/12/31 00:50:29;;;;;;;2.22;1.88;;;16.40;78.40;;;;;;5076724;28;20105;-89
2021/12/31 00:53:18;;;;;;;3.00;2.30;;;16.40;78.40;;;;;;5076878;28;20031;-89
2021/12/31 00:55:49;;;;;;;3.08;2.03;;;16.40;78.30;;;;;;5083178;28;20020;-91
2021/12/31 00:58:50;;;;;;;;;;;;;;;;;;;;;
2021/12/31 01:01:21;;;;;;;3.00;2.17;;;16.40;78.50;;;;;;5088175;28;20058;-88
2021/12/31 01:03:55;;;;;;;2.00;1.80;;;16.40;78.30;;;;;;5093877;28;20080;-88
2021/12/31 01:06:59;;;;;;;;;;;;;;;;;;;;;
2021/12/31 01:09:46;;;;;;;2.25;1.83;;;16.40;78.50;;;;;;5096520;28;20096;-89
2021/12/31 01:12:42;;;;;;;2.17;1.70;;;16.40;78.30;;;;;;5070005;28;20086;-89
2021/12/31 01:15:22;;;;;;;;;;;;;;;;;;;;;
2021/12/31 01:18:19;;;;;;;2.30;1.95;;;16.40;78.30;;;;;;5092398;28;20050;-89
2021/12/31 01:21:38;;;;;;;2.78;1.80;;;16.40;78.30;;;;;;5100027;28;20034;-91
2021/12/31 01:24:33;;;;;;;;;;;;;;;;;;;;;
2021/12/31 01:27:32;;;;;;;2.60;1.75;;;16.40;78.40;;;;;;5086278;28;20032;-88
2021/12/31 01:30:29;;;;;;;2.28;1.90;;;16.40;78.40;;;;;;5092535;28;20101;-88
2021/12/31 01:33:22;;;;;;;2.10;1.70;;;16.40;78.30;;;;;;5066246;28;20074;-88
2021/12/31 01:36:01;;;;;;;2.17;1.80;;;16.30;78.30;;;;;;5087131;28;20040;-88
2021/12/31 01:39:06;;;;;;;1.40;1.30;;;16.40;78.30;;;;;;5078887;28;20035;-88
2021/12/31 01:45:54;;;;;;;3.05;1.80;;;16.30;78.30;;;;;;5067502;28;20040;-90
2021/12/31 01:49:03;;;;;;;1.92;1.55;;;16.40;78.30;;;;;;5088423;28;20034;-89
2021/12/31 01:52:01;;;;;;;3.58;1.63;;;16.30;78.30;;;;;;5079390;28;20035;-88
2021/12/31 01:55:04;;;;;;;2.00;1.42;;;16.30;78.40;;;;;;5068477;28;20020;-88
2021/12/31 01:57:41;;;;;;;2.58;1.52;;;16.40;78.50;;;;;;5086062;28;20071;-88
2021/12/31 02:00:44;;;;;;;1.77;1.40;;;16.30;78.40;;;;;;5080104;28;20081;-93
2021/12/31 02:03:28;;;;;;;3.88;1.70;;;16.30;78.60;;;;;;5074008;28;20064;-89
2021/12/31 02:06:42;;;;;;;2.22;1.30;;;16.30;78.40;;;;;;5074649;28;20037;-89
2021/12/31 02:09:47;;;;;;;;;;;;;;;;;;;;;
2021/12/31 02:12:38;;;;;;;1.55;1.33;;;16.30;78.40;;;;;;5093377;28;20478;-89
2021/12/31 02:15:21;;;;;;;3.78;1.67;;;16.30;78.40;;;;;;5083867;28;20108;-89
2021/12/31 02:18:27;;;;;;;2.15;1.50;;;16.30;78.50;;;;;;5115601;27;20059;-89
2021/12/31 02:21:35;;;;;;;;;;;;;;;;;;;;;
2021/12/31 02:24:22;;;;;;;;;;;;;;;;;;;;;
2021/12/31 02:27:01;;;;;;;;;;;;;;;;;;;;;
2021/12/31 02:29:45;;;;;;;1.70;1.30;;;16.30;78.40;;;;;;5091259;28;20116;-89
2021/12/31 02:32:34;;;;;;;2.20;1.40;;;16.30;78.50;;;;;;5094173;28;20650;-89
2021/12/31 02:35:16;;;;;;;2.08;1.38;;;16.30;78.40;;;;;;5089162;28;20039;-90
2021/12/31 02:37:42;;;;;;;1.92;1.40;;;16.30;78.40;;;;;;5094142;28;20032;-90
2021/12/31 02:40:21;;;;;;;;;;;16.30;78.40;;;;;;5083982;28;20036;-88
2021/12/31 02:43:06;;;;;;;2.55;1.52;;;16.30;78.40;;;;;;5094919;28;19995;-88
2021/12/31 02:48:57;;;;;;;2.08;1.33;;;16.30;78.40;;;;;;5097742;28;20026;-90
2021/12/31 02:52:28;;;;;;;1.55;1.38;;;16.30;78.40;;;;;;5100700;28;20032;-90
2021/12/31 02:55:15;;;;;;;;;;;;;;;;;;;;;
2021/12/31 02:57:58;;;;;;;2.75;1.40;;;16.30;78.50;;;;;;5107672;27;20482;-89
2021/12/31 03:00:52;;;;;;;1.30;1.20;;;16.30;78.50;;;;;;5082328;28;20076;-90
2021/12/31 03:03:42;;;;;;;3.00;1.33;;;16.30;78.60;;;;;;5082552;28;20032;-89
2021/12/31 03:06:40;;;;;;;2.00;1.33;;;16.30;78.60;;;;;;5095041;28;20129;-89
2021/12/31 03:09:26;;;;;;;1.30;1.20;;;16.30;78.50;;;;;;5092338;28;20024;-91
2021/12/31 03:12:17;;;;;;;;;;;;;;;;;;;;;
2021/12/31 03:17:48;;;;;;;1.88;1.30;;;16.30;78.50;;;;;;5070595;28;20044;-93
2021/12/31 03:20:35;;;;;;;;;;;;;;;;;;;;;
2021/12/31 03:23:26;;;;;;;2.22;1.45;;;16.30;78.50;;;;;;5092603;28;20166;-89
2021/12/31 03:26:12;;;;;;;1.73;1.30;;;16.30;78.50;;;;;;5092633;28;20032;-89
2021/12/31 03:28:51;;;;;;;2.33;1.38;;;16.40;78.50;;;;;;5065303;28;20028;-90
2021/12/31 03:31:35;;;;;;;2.65;1.50;;;16.30;78.40;;;;;;5082613;28;20054;-89
2021/12/31 03:34:14;;;;;;;2.17;1.50;;;16.30;78.50;;;;;;5076929;28;20032;-89
2021/12/31 03:37:08;;;;;;;1.20;1.08;;;16.30;78.50;;;;;;5075206;28;20122;-89
2021/12/31 03:39:42;;;;;;;2.20;1.20;;;16.30;78.50;;;;;;5062044;28;20036;-88
2021/12/31 03:42:18;;;;;;;;;;;;;;;;;;;;;
2021/12/31 03:44:58;;;;;;;1.92;1.13;;;16.40;78.50;;;;;;5072620;28;20124;-89
2021/12/31 03:47:37;;;;;;;1.85;1.33;;;16.30;78.40;;;;;;5090904;28;20044;-89
2021/12/31 03:50:09;;;;;;;1.50;1.33;;;16.30;78.40;;;;;;5089057;28;20111;-89
2021/12/31 03:53:11;;;;;;;1.17;1.08;;;16.40;78.50;;;;;;5109737;28;20040;-92
2021/12/31 03:56:36;;;;;;;1.35;1.20;;;16.40;78.60;;;;;;5096139;28;20380;-89
2021/12/31 03:59:22;;;;;;;2.92;1.65;;;16.30;78.50;;;;;;5092446;28;20757;-89
2021/12/31 04:02:16;;;;;;;1.27;1.17;;;16.40;78.40;;;;;;5091994;28;20085;-89
2021/12/31 04:05:16;;;;;;;1.20;1.10;;;16.40;78.50;;;;;;5080403;28;20123;-87
2021/12/31 04:08:20;;;;;;;1.83;1.20;;;16.30;78.50;;;;;;5094059;28;20036;-89
2021/12/31 04:11:13;;;;;;;2.25;1.27;;;16.30;78.50;;;;;;5092779;28;20106;-89
2021/12/31 04:13:52;;;;;;;1.67;1.30;;;16.30;78.40;;;;;;5079687;28;20046;-93
2021/12/31 04:16:22;;;;;;;1.70;1.17;;;16.30;78.40;;;;;;5065362;28;20040;-88
2021/12/31 04:18:55;;;;;;;1.25;1.10;;;16.30;78.50;;;;;;5063965;28;20449;-88
2021/12/31 04:21:37;;;;;;;1.65;1.40;;;16.40;78.50;;;;;;5092718;28;20036;-90
2021/12/31 04:24:28;;;;;;;2.45;1.58;;;16.30;78.40;;;;;;5054638;28;20044;-90
2021/12/31 04:27:26;;;;;;;;;;;;;;;;;;;;;
2021/12/31 04:30:24;;;;;;;1.65;1.20;;;16.40;78.40;;;;;;5099039;28;20031;-90
2021/12/31 04:33:10;;;;;;;2.25;1.40;;;16.30;78.50;;;;;;5072974;28;20059;-90
2021/12/31 04:36:05;;;;;;;1.27;1.17;;;16.40;78.50;;;;;;5081276;28;20033;-89
2021/12/31 04:38:44;;;;;;;1.90;1.30;;;16.30;78.50;;;;;;5087303;28;20039;-88
2021/12/31 04:41:34;;;;;;;1.90;1.40;;;16.30;78.30;;;;;;5068678;28;20027;-91
2021/12/31 04:44:03;;;;;;;1.65;1.27;;;16.30;78.60;;;;;;5081775;28;20025;-88
2021/12/31 04:46:43;;;;;;;2.22;1.40;;;16.40;78.50;;;;;;5074495;28;20048;-88
2021/12/31 04:49:22;;;;;;;1.42;1.20;;;16.30;78.50;;;;;;5084406;28;20040;-89
2021/12/31 04:52:00;;;;;;;1.52;1.10;;;16.30;78.50;;;;;;5091737;28;20028;-89
2021/12/31 04:54:27;;;;;;;2.63;1.42;;;16.40;78.50;;;;;;5087477;28;20111;-88
2021/12/31 05:00:46;;;;;;;1.30;1.20;;;16.40;78.40;;;;;;5058806;28;19912;-87
2021/12/31 05:03:42;;;;;;;;;;;;;;;;;;;;;
2021/12/31 05:06:42;;;;;;;;;;;;;;;;;;;;;
2021/12/31 05:09:24;;;;;;;1.90;1.20;;;16.30;78.50;;;;;;5078414;28;20039;-89
2021/12/31 05:12:19;;;;;;;1.80;1.17;;;16.30;78.50;;;;;;5061437;28;20413;-89
2021/12/31 05:15:10;;;;;;;2.67;1.30;;;16.30;78.60;;;;;;5077218;28;20538;-89
2021/12/31 05:17:54;;;;;;;1.85;1.48;;;16.30;78.50;;;;;;5075437;28;20093;-88
2021/12/31 05:20:35;;;;;;;1.70;1.38;;;16.30;78.50;;;;;;5082147;28;20147;-89
2021/12/31 05:23:22;;;;;;;1.40;1.27;;;16.30;78.50;;;;;;5088231;28;20059;-88
2021/12/31 05:25:51;;;;;;;1.60;1.10;;;16.30;79.10;;;;;;5054815;28;20468;-93
2021/12/31 05:28:22;;;;;;;2.03;1.27;;;16.30;78.50;;;;;;5070067;28;20051;-89
2021/12/31 05:31:08;;;;;;;;;;;;;;;;;;;;;
2021/12/31 05:33:35;;;;;;;2.45;1.30;;;16.30;78.50;;;;;;5100845;28;20098;-88
2021/12/31 05:36:16;;;;;;;2.40;1.50;;;16.30;78.40;;;;;;5075289;28;20059;-89
2021/12/31 05:39:10;;;;;;;;;;;;;;;;;;;;;
2021/12/31 05:41:57;;;;;;;2.53;1.40;;;16.30;78.40;;;;;;5091629;28;20024;-89
2021/12/31 05:44:44;;;;;;;;;;;;;;;;;;;;;
2021/12/31 05:47:33;;;;;;;1.58;1.40;;;16.30;78.40;;;;;;5094788;28;20035;-88
2021/12/31 05:50:28;;;;;;;1.70;1.27;;;16.30;78.50;;;;;;5076054;28;20051;-90
2021/12/31 05:55:58;;;;;;;2.42;1.40;;;16.30;78.40;;;;;;5082931;28;20033;-89
2021/12/31 05:58:33;;;;;;;2.08;1.38;;;16.30;78.40;;;;;;5075971;28;20063;-89
2021/12/31 06:01:31;;;;;;;1.90;1.50;;;16.30;78.50;;;;;;5093990;28;20020;-88
2021/12/31 06:03:57;;;;;;;2.22;1.42;;;16.30;78.40;;;;;;5082077;28;20328;-90
2021/12/31 06:06:49;;;;;;;1.92;1.30;;;16.30;78.40;;;;;;5074851;28;20031;-89
2021/12/31 06:09:29;;;;;;;2.53;1.40;;;16.30;78.50;;;;;;5074788;28;20046;-89
2021/12/31 06:12:11;;;;;;;1.70;1.45;;;16.30;78.40;;;;;;5048331;28;20043;-89
2021/12/31 06:14:48;;;;;;;1.80;1.40;;;16.30;78.50;;;;;;5093883;28;20044;-89
2021/12/31 06:17:24;;;;;;;;;;;;;;;;;;;;;
2021/12/31 06:20:00;;;;;;;2.08;1.30;;;16.30;78.50;;;;;;5074134;28;20053;-90
2021/12/31 06:22:34;;;;;;;2.13;1.40;;;16.30;78.50;;;;;;5085678;28;20039;-89
2021/12/31 06:25:22;;;;;;;2.92;1.40;;;16.30;78.50;;;;;;5080929;28;20106;-89
2021/12/31 06:27:52;;;;;;;2.05;1.52;;;16.30;78.50;;;;;;5088774;28;20061;-89
2021/12/31 06:30:24;;;;;;;1.75;1.27;;;16.30;78.40;;;;;;5088085;28;20059;-88
2021/12/31 06:33:16;;;;;;;3.08;1.85;;;16.30;78.50;;;;;;5092124;28;20028;-90
2021/12/31 06:36:20;;;;;;;;;;;;;;;;;;;;;
2021/12/31 06:38:52;;;;;;;2.58;1.60;;;16.30;78.40;;;;;;5084153;28;20045;-87
2021/12/31 06:41:34;;;;;;;2.03;1.42;;;16.30;78.50;;;;;;5062967;28;20030;-89
2021/12/31 06:44:13;;;;;;;1.58;1.40;;;16.30;78.50;;;;;;5071995;28;20552;-88
2021/12/31 06:46:45;;;;;;;2.45;1.50;;;16.30;78.40;;;;;;5069825;28;20032;-87
2021/12/31 06:49:13;;;;;;;2.38;1.23;;;16.30;78.50;;;;;;5076737;28;20051;-87
2021/12/31 06:51:39;;;;;;;2.20;1.65;;;16.30;78.50;;;;;;5080016;28;20023;-87
2021/12/31 06:54:24;;;;;;;;;;;;;;;;;;;;;
2021/12/31 06:57:03;;;;;;;1.67;1.40;;;16.30;78.50;;;;;;5094156;28;20040;-88
2021/12/31 06:59:53;;;;;;;2.42;1.58;;;16.30;78.50;;;;;;5089368;28;20032;-86
2021/12/31 07:02:46;;;;;;;2.13;1.63;;;16.30;78.40;;;;;;5077818;28;20094;-88
2021/12/31 07:05:27;;;;;;;2.22;1.65;;;16.20;78.40;;;;;;5085802;28;20052;-86
2021/12/31 07:08:13;;;;;;;2.42;1.65;;;16.20;78.30;;;;;;5062831;28;20089;-87
2021/12/31 07:10:45;;;;;;;1.83;1.50;;;16.20;78.40;;;;;;5075392;28;20024;-88
2021/12/31 07:13:30;;;;;;;2.35;1.67;;;16.20;78.30;;;;;;5073659;28;20024;-88
2021/12/31 07:16:06;;;;;;;3.15;1.70;;;16.20;78.50;;;;;;5074693;28;20098;-87
2021/12/31 07:18:34;;;;;;;1.38;1.27;;;16.20;78.40;;;;;;5076077;28;20048;-86
2021/12/31 07:21:05;;;;;;;2.60;1.70;;;16.20;78.40;;;;;;5075659;28;20819;-87
2021/12/31 07:23:44;;;;;;;1.88;1.40;;;16.20;78.40;;;;;;5082741;28;20031;-87
2021/12/31 07:26:50;;;;;;;;;;;;;;;;;;;;;
2021/12/31 07:29:20;;;;;;;3.22;1.77;;;16.20;78.50;;;;;;5072704;28;20429;-86
2021/12/31 07:32:17;;;;;;;2.17;1.50;;;16.20;78.30;;;;;;5078566;28;20019;-87
2021/12/31 07:34:49;;;;;;;1.73;1.50;;;16.20;78.50;;;;;;5072311;28;20043;-86
2021/12/31 07:37:37;;;;;;;1.60;1.30;;;16.10;78.20;;;;;;5056771;28;20039;-89
2021/12/31 07:40:13;;;;;;;2.08;1.65;;;16.20;78.40;;;;;;5064607;28;20043;-86
2021/12/31 07:42:43;;;;;;;;;;;16.10;78.30;;;;;;5084531;28;20023;-86
2021/12/31 07:45:16;;;;;;;1.75;1.40;;;16.10;78.30;;;;;;5087171;28;20007;-87
2021/12/31 07:47:48;;;;;;;2.15;1.50;;;16.10;78.20;;;;;;5110226;28;20031;-88
2021/12/31 07:50:42;;;;;;;2.58;1.60;;;16.10;78.30;;;;;;5088774;28;20036;-84
2021/12/31 07:53:24;;;;;;;1.63;1.50;;;16.10;78.50;;;;;;5075962;28;20027;-86
2021/12/31 07:56:07;;;;;;;2.22;1.42;;;16.10;78.40;;;;;;5085095;28;20456;-89
2021/12/31 07:58:42;;;;;;;1.35;1.25;;;16.00;78.30;;;;;;5106546;28;20085;-86
2021/12/31 08:01:26;;;;;;;2.67;1.45;;;16.00;78.30;;;;;;5075333;28;20016;-86
2021/12/31 08:03:55;;;;;;;2.35;1.60;;;16.00;78.30;;;;;;5076055;28;20477;-87
2021/12/31 08:06:34;;;;;;;1.65;1.52;;;16.00;78.20;;;;;;5076395;28;20089;-89
2021/12/31 08:09:18;;;;;;;3.10;1.60;;;16.00;78.90;;;;;;5102360;28;20059;-87
2021/12/31 08:12:22;;;;;;;2.28;1.63;;;16.00;78.20;;;;;;5081250;28;20042;-86
2021/12/31 08:14:50;;;;;;;1.73;1.45;;;16.00;78.40;;;;;;5036690;28;20080;-86
2021/12/31 08:17:29;;;;;;;3.33;1.92;;;16.00;78.20;;;;;;5088059;28;20047;-87
2021/12/31 08:19:58;;;;;;;2.70;1.60;;;15.90;78.20;;;;;;5057619;28;20060;-87
2021/12/31 08:22:36;;;;;;;1.90;1.48;;;16.00;78.20;;;;;;5071765;28;20036;-88
2021/12/31 08:25:04;;;;;;;1.80;1.45;;;15.90;78.10;;;;;;5090703;28;20465;-86
2021/12/31 08:27:32;;;;;;;2.33;1.60;;;15.90;78.20;;;;;;5074156;28;20024;-84
2021/12/31 08:30:25;;;;;;;;;;;;;;;;;;;;;
2021/12/31 08:32:54;;;;;;;2.95;1.65;;;15.90;78.20;;;;;;5093385;28;20028;-88
2021/12/31 08:35:30;;;;;;;3.30;1.73;;;15.90;78.10;;;;;;5080244;28;20492;-86
2021/12/31 08:38:05;;;;;;;2.53;1.58;;;15.90;78.20;;;;;;5079958;28;20040;-86
2021/12/31 08:41:02;;;;;;;;;;;;;;;;;;;;;
2021/12/31 08:43:34;;;;;;;1.73;1.60;;;15.90;78.20;;;;;;5088790;28;20469;-87
2021/12/31 08:46:13;;;;;;;;;;;;;;;;;;;;;
2021/12/31 08:48:57;;;;;;;1.70;1.58;;;15.90;78.20;;;;;;5094764;28;20028;-90
2021/12/31 08:51:27;;;;;;;2.55;1.52;;;15.90;78.20;;;;;;5090728;28;20024;-87
2021/12/31 08:54:02;;;;;;;2.80;1.77;;;15.90;78.20;;;;;;5096208;28;20031;-83
2021/12/31 08:56:43;;;;;;;2.53;1.52;;;15.90;78.20;;;;;;5076551;28;20036;-89
2021/12/31 08:59:19;;;;;;;1.95;1.58;;;15.80;78.20;;;;;;5076327;28;20051;-89
2021/12/31 09:02:08;;;;;;;3.08;1.70;;;15.80;78.20;;;;;;5080498;28;20024;-91
2021/12/31 09:04:51;;;;;;;2.45;1.50;;;15.80;78.10;;;;;;5098448;28;20025;-85
2021/12/31 09:07:19;;;;;;;1.77;1.50;;;15.80;78.20;;;;;;5078532;28;20036;-86
2021/12/31 09:10:00;;;;;;;1.83;1.42;;;15.80;78.20;;;;;;5064445;28;20085;-85
2021/12/31 09:12:36;;;;;;;2.28;1.60;;;15.80;78.10;;;;;;5078827;28;20024;-86
2021/12/31 09:15:30;;;;;;;1.83;1.40;;;15.80;78.20;;;;;;5095591;28;20028;-85
2021/12/31 09:18:09;;;;;;;1.90;1.50;;;15.80;78.20;;;;;;5075437;28;20131;-86
2021/12/31 09:20:38;;;;;;;1.50;1.40;;;15.80;78.20;;;;;;5079225;28;20059;-86
2021/12/31 09:23:15;;;;;;;2.17;1.60;;;15.80;78.20;;;;;;5089594;28;20113;-87
2021/12/31 09:25:56;;;;;;;1.60;1.45;;;15.80;78.20;;;;;;5094973;28;20020;-86
2021/12/31 09:28:37;;;;;;;1.98;1.50;;;15.80;78.30;;;;;;5074939;28;20464;-86
2021/12/31 09:31:07;;;;;;;1.70;1.35;;;15.70;78.20;;;;;;5076096;28;20092;-88
2021/12/31 09:33:45;;;;;;;2.47;1.70;;;15.80;78.20;;;;;;5075040;28;20032;-87
2021/12/31 09:36:44;;;;;;;2.30;1.73;;;15.80;78.20;;;;;;5094699;28;20838;-86
2021/12/31 09:39:24;;;;;;;2.25;1.50;;;15.80;78.20;;;;;;5089457;28;20032;-88
2021/12/31 09:42:11;;;;;;;1.70;1.40;;;15.70;78.10;;;;;;5094533;28;20024;-85
2021/12/31 09:45:04;;;;;;;1.80;1.60;;;15.70;78.30;;;;;;5094330;28;20060;-85
2021/12/31 09:47:45;;;;;;;3.15;1.73;;;15.70;78.30;;;;;;5074649;28;20076;-84
2021/12/31 09:50:21;;;;;;;1.85;1.55;;;15.80;78.30;;;;;;5080576;28;20079;-85
2021/12/31 09:53:00;;;;;;;1.70;1.45;;;15.80;78.20;;;;;;5094915;28;20024;-86
2021/12/31 09:55:54;;;;;;;;;;;;;;;;;;;;;
2021/12/31 09:58:38;;;;;;;2.63;1.70;;;15.70;78.30;;;;;;5094712;28;20040;-87
2021/12/31 10:01:42;;;;;;;1.92;1.40;;;15.80;78.20;;;;;;5077699;28;20062;-87
2021/12/31 10:04:15;;;;;;;1.73;1.60;;;15.70;78.30;;;;;;5062952;28;20040;-89
2021/12/31 10:07:21;;;;;;;1.85;1.55;;;15.70;78.20;;;;;;5094994;28;20032;-88
2021/12/31 10:10:25;;;;;;;2.30;1.40;;;15.70;78.40;;;;;;5094994;28;20040;-89
2021/12/31 10:16:49;;;;;;;2.17;1.60;;;15.70;78.30;;;;;;5094898;28;20027;-86
2021/12/31 10:19:26;;;;;;;2.08;1.50;;;15.70;78.30;;;;;;5074282;28;20040;-87
2021/12/31 10:22:13;;;;;;;;;;;;;;;;;;;;;
2021/12/31 10:24:47;;;;;;;1.73;1.42;;;15.70;78.30;;;;;;5078955;28;20039;-86
2021/12/31 10:27:50;;;;;;;2.20;1.77;;;15.70;78.30;;;;;;5080477;28;20048;-87
2021/12/31 10:30:44;;;;;;;2.95;1.60;;;15.70;78.20;;;;;;5078370;28;20032;-89
2021/12/31 10:33:43;;;;;;;2.08;1.55;;;15.80;78.30;;;;;;5082339;28;20485;-85
2021/12/31 10:36:39;;;;;;;2.22;1.60;;;15.80;78.40;;;;;;5094528;28;20028;-85
2021/12/31 10:39:37;;;;;;;2.42;1.38;;;15.70;78.30;;;;;;5094212;28;20109;-86
2021/12/31 10:42:16;;;;;;;2.00;1.50;;;15.80;79.00;;;;;;5077552;28;20043;-87
2021/12/31 10:44:51;;;;;;;2.35;1.75;;;15.80;78.20;;;;;;5096913;28;20031;-88
2021/12/31 10:47:34;;;;;;;2.25;1.70;;;15.80;78.30;;;;;;5113170;28;20020;-88
2021/12/31 10:50:14;;;;;;;2.75;1.50;;;15.70;78.30;;;;;;5097706;28;20020;-91
2021/12/31 10:53:12;;;;;;;;;;;;;;;;;;;;;
2021/12/31 10:55:44;;;;;;;2.92;1.50;;;15.80;78.30;;;;;;5094191;28;20040;-89
2021/12/31 10:58:24;;;;;;;1.73;1.48;;;15.80;78.20;;;;;;5076561;28;20036;-87
2021/12/31 11:01:06;;;;;;;3.30;1.63;;;15.80;78.30;;;;;;5073546;28;20029;-88
2021/12/31 11:03:37;;;;;;;2.70;1.55;;;15.80;78.20;;;;;;5071777;28;20040;-84
2021/12/31 11:06:22;;;;;;;;;;;;;;;;;;;;;
2021/12/31 11:09:16;;;;;;;1.92;1.42;;;15.80;78.20;;;;;;5093521;28;20101;-83
2021/12/31 11:11:56;;;;;;;2.38;1.52;;;15.80;78.20;;;;;;5079666;28;20119;-84
2021/12/31 11:14:29;;;;;;;1.98;1.48;;;15.80;78.20;;;;;;5076123;28;20024;-84
2021/12/31 11:16:58;;;;;;;2.60;1.42;;;15.90;78.30;;;;;;5093228;28;20043;-85
2021/12/31 11:19:25;;;;;;;2.78;1.85;;;15.90;78.30;;;;;;5059382;28;20032;-86
2021/12/31 11:22:02;;;;;;;3.35;1.60;;;15.80;78.20;;;;;;5110221;28;20070;-85
2021/12/31 11:24:40;;;;;;;1.95;1.50;;;15.90;78.20;;;;;;5093385;28;20361;-85
2021/12/31 11:27:31;;;;;;;2.60;1.67;;;15.90;78.20;;;;;;5093526;28;20042;-88
2021/12/31 11:30:01;;;;;;;2.25;1.55;;;15.80;78.20;;;;;;5093243;28;20123;-84
2021/12/31 11:32:46;;;;;;;2.17;1.75;;;15.90;78.20;;;;;;5092824;28;20024;-85
2021/12/31 11:35:44;;;;;;;1.98;1.50;;;15.90;78.40;;;;;;5092905;28;20035;-87
2021/12/31 11:38:54;;;;;;;2.35;1.58;;;15.90;78.40;;;;;;5076715;28;20036;-84
2021/12/31 11:41:24;;;;;;;2.20;1.40;;;15.90;78.40;;;;;;5075805;28;20024;-84
2021/12/31 11:44:11;;;;;;;3.45;1.90;;;15.90;78.20;;;;;;5075842;28;20028;-86
2021/12/31 11:46:47;;;;;;;2.05;1.50;;;15.90;78.40;;;;;;5076057;28;20036;-84
2021/12/31 11:49:23;;;;;;;;;;;15.90;78.30;;;;;;5093376;28;20028;-85
2021/12/31 11:52:00;;;;;;;1.75;1.48;;;15.90;78.20;;;;;;5092597;28;19962;-84
2021/12/31 11:54:33;;;;;;;1.77;1.40;;;15.90;78.20;;;;;;5092604;28;20032;-85
2021/12/31 11:57:23;;;;;;;2.10;1.58;;;15.90;78.30;;;;;;5077244;28;20048;-84
2021/12/31 11:59:58;;;;;;;2.50;1.60;;;15.90;78.30;;;;;;5076471;28;20149;-86
2021/12/31 12:02:39;;;;;;;2.03;1.50;;;15.90;78.30;;;;;;5092451;28;20060;-85
2021/12/31 12:05:11;;;;;;;1.73;1.50;;;15.90;78.40;;;;;;5092441;28;20035;-85
2021/12/31 12:07:58;;;;;;;2.67;1.60;;;15.90;78.30;;;;;;5091512;28;20040;-85
2021/12/31 12:10:29;;;;;;;1.65;1.50;;;16.00;78.50;;;;;;5092486;28;20201;-86
2021/12/31 12:13:16;;;;;;;1.92;1.73;;;16.00;78.30;;;;;;5092041;28;20031;-85
2021/12/31 12:15:46;;;;;;;1.58;1.48;;;16.00;78.30;;;;;;5092327;28;20040;-86
2021/12/31 12:19:06;;;;;;;2.03;1.60;;;16.00;78.30;;;;;;5075697;28;20127;-86
2021/12/31 12:21:33;;;;;;;2.15;1.70;;;16.00;78.50;;;;;;5090001;28;20043;-85
2021/12/31 12:23:59;;;;;;;2.05;1.70;;;16.00;78.20;;;;;;5074844;28;20036;-86
2021/12/31 12:26:31;;;;;;;2.40;1.80;;;16.00;78.20;;;;;;5091424;28;20060;-86
2021/12/31 12:28:57;;;;;;;3.72;1.73;;;16.00;78.30;;;;;;5075018;28;20036;-85
2021/12/31 12:31:38;;;;;;;1.73;1.50;;;16.10;78.30;;;;;;5092381;28;20027;-85
2021/12/31 12:34:07;;;;;;;2.47;1.75;;;16.10;78.30;;;;;;5075624;28;20020;-87
2021/12/31 12:36:33;;;;;;;2.83;1.90;;;16.10;78.30;;;;;;5075163;28;20039;-85
2021/12/31 12:39:05;;;;;;;1.95;1.67;;;16.10;78.20;;;;;;5075715;28;20034;-88
2021/12/31 12:41:32;;;;;;;3.22;1.83;;;16.10;78.30;;;;;;5092301;28;20115;-87
2021/12/31 12:43:58;;;;;;;2.38;1.80;;;16.10;78.20;;;;;;5075560;28;20466;-87
2021/12/31 12:46:24;;;;;;;2.40;1.73;;;16.10;78.20;;;;;;5092071;28;20042;-87
2021/12/31 12:48:57;;;;;;;2.72;1.80;;;16.10;78.20;;;;;;5075714;28;20759;-85
2021/12/31 12:51:29;;;;;;;2.55;1.80;;;16.10;78.20;;;;;;5075700;28;20031;-86
2021/12/31 12:53:56;;;;;;;2.22;1.80;;;16.20;78.30;;;;;;5091338;28;20491;-90
2021/12/31 12:56:26;;;;;;;2.42;1.75;;;16.20;78.20;;;;;;5074973;28;20383;-88
2021/12/31 12:58:57;;;;;;;3.03;1.90;;;16.20;78.20;;;;;;5091388;28;20514;-86
2021/12/31 13:01:36;;;;;;;2.83;1.90;;;16.20;78.20;;;;;;5091837;28;20384;-90
2021/12/31 13:04:21;;;;;;;1.88;1.60;;;16.20;78.30;;;;;;5083511;28;20516;-90
2021/12/31 13:07:02;;;;;;;2.63;1.95;;;16.20;78.30;;;;;;5071783;28;20144;-88
2021/12/31 13:09:38;;;;;;;2.30;1.70;;;16.20;78.20;;;;;;5086874;28;20031;-88
2021/12/31 13:12:16;;;;;;;2.67;1.88;;;16.20;78.10;;;;;;5093520;28;20431;-92
2021/12/31 13:14:58;;;;;;;2.90;1.70;;;16.20;78.10;;;;;;5091753;28;20039;-87
2021/12/31 13:17:32;;;;;;;;;;;16.20;78.20;;;;;;5092310;28;20100;-87
2021/12/31 13:20:08;;;;;;;2.40;1.65;;;16.20;78.10;;;;;;5092678;28;20003;-87
2021/12/31 13:22:38;;;;;;;2.83;1.80;;;16.20;78.00;;;;;;5095396;28;20039;-88
2021/12/31 13:25:11;;;;;;;3.28;2.08;;;16.20;78.10;;;;;;5085711;28;20043;-89
2021/12/31 13:28:16;;;;;;;;;;;;;;;;;;;;;
2021/12/31 13:31:18;;;;;;;3.47;2.00;;;16.20;78.20;;;;;;5116022;28;20026;-89
2021/12/31 13:34:42;;;;;;;;;;;;;;;;;;;;;
2021/12/31 13:38:07;;;;;;;;;;;;;;;;;;;;;
2021/12/31 13:41:07;;;;;;;2.38;1.77;;;16.30;78.20;;;;;;5076826;28;20029;-88
2021/12/31 13:43:58;;;;;;;2.70;2.03;;;16.30;78.00;;;;;;5092066;28;20037;-85
2021/12/31 13:46:36;;;;;;;3.58;2.00;;;16.30;78.20;;;;;;5103332;28;20051;-89
2021/12/31 13:49:33;;;;;;;3.08;2.17;;;16.20;78.10;;;;;;5088148;28;20017;-86
2021/12/31 13:55:30;;;;;;;2.95;1.95;;;16.30;78.00;;;;;;5077483;28;20472;-82
2021/12/31 13:58:04;;;;;;;3.13;2.05;;;16.30;78.10;;;;;;5061280;28;20051;-88
2021/12/31 14:00:48;;;;;;;2.25;1.77;;;16.30;78.00;;;;;;5094722;28;20035;-85
2021/12/31 14:03:42;;;;;;;2.83;2.15;;;16.30;78.00;;;;;;5086615;28;20035;-90
2021/12/31 14:06:18;;;;;;;2.63;1.98;;;16.30;78.00;;;;;;5092713;28;20044;-85
2021/12/31 14:12:24;;;;;;;2.83;2.15;;;16.30;78.00;;;;;;5074486;28;20504;-87
2021/12/31 14:15:39;;;;;;;2.97;2.05;;;16.30;78.10;;;;;;5074806;28;20116;-88
2021/12/31 14:18:47;;;;;;;2.78;2.15;;;16.30;78.00;;;;;;5073955;28;20049;-90
2021/12/31 14:21:40;;;;;;;3.15;2.15;;;16.30;78.00;;;;;;5059565;28;20057;-89
2021/12/31 14:24:30;;;;;;;3.83;2.38;;;16.30;78.00;;;;;;5074229;28;20040;-89
2021/12/31 14:27:16;;;;;;;3.22;2.17;;;16.30;78.00;;;;;;5059755;28;20031;-88
2021/12/31 14:33:04;;;;;;;3.60;2.40;;;16.30;78.00;;;;;;5105201;28;20034;-89
2021/12/31 14:35:53;;;;;;;4.15;2.42;;;16.30;78.00;;;;;;5088400;28;20032;-88
2021/12/31 14:38:36;;;;;;;3.80;2.58;;;16.30;77.90;;;;;;5075710;28;20044;-90
2021/12/31 14:44:40;;;;;;;3.13;2.40;;;16.30;78.00;;;;;;5090390;28;20066;-89
2021/12/31 14:47:54;;;;;;;5.70;3.20;;;16.30;77.90;;;;;;5073690;28;20182;-88
2021/12/31 14:50:20;;;;;;;4.47;3.10;;;16.30;78.00;;;;;;5057391;28;20091;-90
2021/12/31 14:53:12;;;;;;;4.15;2.72;;;16.30;77.90;;;;;;5072403;28;20024;-91
2021/12/31 14:55:49;;;;;;;4.43;3.15;;;16.30;77.90;;;;;;5073101;28;20089;-89
2021/12/31 14:58:32;;;;;;;5.00;3.08;;;16.30;77.90;;;;;;5074498;28;20170;-89
2021/12/31 15:01:35;;;;;;;;;;;;;;;;;;;;;
2021/12/31 15:04:36;;;;;;;5.38;3.42;;;16.30;77.80;;;;;;5093608;28;20036;-87
2021/12/31 15:07:10;;;;;;;4.68;3.28;;;16.30;77.90;;;;;;5093127;28;20040;-87
2021/12/31 15:09:46;;;;;;;4.75;3.13;;;16.30;77.80;;;;;;5085630;28;20040;-88
2021/12/31 15:12:16;;;;;;;3.78;3.05;;;16.30;77.80;;;;;;5073042;28;20031;-87
2021/12/31 15:15:12;;;;;;;;;;;;;;;;;;;;;
2021/12/31 15:17:51;;;;;;;5.55;3.72;;;16.30;77.80;;;;;;5074581;28;20036;-88
2021/12/31 15:20:41;;;;;;;;;;;;;;;;;;;;;
2021/12/31 15:23:20;;;;;;;;;;;;;;;;;;;;;
2021/12/31 15:26:09;;;;;;;5.10;3.28;;;16.20;77.60;;;;;;5096853;28;20496;-90
2021/12/31 15:28:41;;;;;;;4.90;3.40;;;16.30;77.70;;;;;;5086205;28;20225;-85
2021/12/31 15:31:07;;;;;;;5.15;3.33;;;16.30;77.70;;;;;;5093634;28;20126;-87
2021/12/31 15:33:44;;;;;;;5.07;3.70;;;16.30;77.80;;;;;;5076528;28;20024;-87